createdAt,value
2022-07-30T00:02:00.224Z,3.57
2022-07-30T00:04:27.676Z,7.83
2022-07-30T00:06:55.078Z,6.50
2022-07-30T00:09:22.404Z,3.97
2022-07-30T00:11:49.840Z,5.67
2022-07-30T00:14:17.315Z,3.47
2022-07-30T00:16:44.688Z,3.73
2022-07-30T00:19:13.470Z,4.60
2022-07-30T00:21:40.869Z,4.60
2022-07-30T00:24:10.697Z,5.40
2022-07-30T00:26:38.751Z,3.90
2022-07-30T00:29:06.681Z,4.37
2022-07-30T00:31:34.313Z,3.67
2022-07-30T00:34:01.626Z,5.43
2022-07-30T00:36:30.437Z,2.70
2022-07-30T00:38:58.012Z,4.23
2022-07-30T00:41:27.104Z,3.97
2022-07-30T00:43:54.401Z,3.03
2022-07-30T00:46:22.014Z,3.53
2022-07-30T00:48:49.445Z,3.03
2022-07-30T00:51:16.897Z,5.83
2022-07-30T00:53:45.570Z,5.53
2022-07-30T00:56:12.944Z,4.00
2022-07-30T00:58:40.262Z,2.60
2022-07-30T01:01:07.795Z,3.83
2022-07-30T01:03:35.103Z,3.77
2022-07-30T01:06:02.718Z,5.73
2022-07-30T01:08:30.103Z,4.37
2022-07-30T01:10:58.828Z,3.60
2022-07-30T01:13:26.234Z,2.37
2022-07-30T01:15:53.978Z,3.80
2022-07-30T01:18:45.749Z,3.20
2022-07-30T01:21:21.223Z,4.07
2022-07-30T01:23:53.497Z,4.37
2022-07-30T01:26:23.240Z,3.83
2022-07-30T01:28:54.838Z,3.83
2022-07-30T01:31:25.332Z,5.60
2022-07-30T01:33:55.495Z,7.20
2022-07-30T01:36:24.280Z,5.43
2022-07-30T01:38:53.342Z,4.47
2022-07-30T01:41:23.958Z,6.40
2022-07-30T01:43:53.533Z,3.10
2022-07-30T01:46:25.188Z,6.93
2022-07-30T01:48:54.676Z,4.03
2022-07-30T01:51:23.068Z,4.27
2022-07-30T01:53:53.543Z,4.17
2022-07-30T01:56:26.161Z,4.77
2022-07-30T01:58:57.218Z,4.00
2022-07-30T02:01:25.174Z,3.30
2022-07-30T02:03:53.553Z,3.53
2022-07-30T02:06:28.765Z,4.57
2022-07-30T02:09:01.595Z,4.03
2022-07-30T02:12:03.882Z,5.87
2022-07-30T02:14:45.715Z,4.70
2022-07-30T02:17:30.089Z,5.73
2022-07-30T02:20:00.259Z,4.17
2022-07-30T02:22:37.192Z,4.13
2022-07-30T02:25:07.440Z,4.63
2022-07-30T02:27:40.509Z,3.30
2022-07-30T02:30:11.186Z,6.83
2022-07-30T02:32:43.979Z,3.80
2022-07-30T02:35:18.848Z,4.97
2022-07-30T02:37:52.739Z,4.23
2022-07-30T02:40:23.420Z,6.13
2022-07-30T02:42:54.528Z,5.50
2022-07-30T02:45:25.171Z,3.50
2022-07-30T02:47:58.648Z,4.30
2022-07-30T02:50:28.351Z,5.37
2022-07-30T02:52:59.437Z,4.37
2022-07-30T02:55:30.060Z,5.77
2022-07-30T02:58:01.332Z,5.67
2022-07-30T03:00:32.117Z,5.27
2022-07-30T03:03:01.726Z,6.40
2022-07-30T03:05:30.107Z,5.37
2022-07-30T03:07:59.880Z,4.40
2022-07-30T03:10:28.691Z,3.83
2022-07-30T03:13:00.102Z,5.43
2022-07-30T03:15:30.079Z,5.13
2022-07-30T03:17:59.787Z,4.60
2022-07-30T03:20:31.699Z,4.20
2022-07-30T03:23:02.979Z,5.73
2022-07-30T03:25:32.772Z,4.27
2022-07-30T03:28:04.068Z,7.47
2022-07-30T03:30:34.557Z,4.97
2022-07-30T03:33:02.828Z,6.50
2022-07-30T03:35:31.528Z,5.57
2022-07-30T03:38:00.816Z,5.57
2022-07-30T03:40:29.883Z,5.70
2022-07-30T03:42:57.892Z,4.47
2022-07-30T03:45:27.929Z,5.23
2022-07-30T03:47:56.886Z,5.20
2022-07-30T03:50:24.656Z,6.30
2022-07-30T03:52:52.652Z,7.83
2022-07-30T03:55:20.244Z,6.40
2022-07-30T03:57:48.913Z,5.03
2022-07-30T04:00:17.251Z,6.20
2022-07-30T04:02:47.297Z,3.97
2022-07-30T04:05:16.195Z,7.47
2022-07-30T04:07:45.159Z,4.40
2022-07-30T04:10:13.402Z,4.93
2022-07-30T04:12:40.812Z,4.40
2022-07-30T04:16:05.915Z,7.23
2022-07-30T04:18:04.495Z,3.77
2022-07-30T04:20:41.147Z,4.70
2022-07-30T04:23:10.687Z,4.30
2022-07-30T04:25:39.629Z,4.70
2022-07-30T04:28:09.497Z,5.40
2022-07-30T04:30:37.175Z,7.80
2022-07-30T04:33:07.407Z,7.53
2022-07-30T04:35:51.579Z,8.73
2022-07-30T04:38:20.178Z,7.33
2022-07-30T04:40:48.546Z,7.77
2022-07-30T04:43:17.122Z,8.37
2022-07-30T04:45:45.040Z,4.40
2022-07-30T04:48:13.804Z,6.23
2022-07-30T04:50:46.915Z,4.20
2022-07-30T04:53:15.394Z,4.47
2022-07-30T04:55:46.861Z,3.97
2022-07-30T04:58:16.821Z,6.67
2022-07-30T05:00:45.744Z,5.93
2022-07-30T05:03:17.319Z,4.00
2022-07-30T05:05:47.110Z,4.20
2022-07-30T05:08:14.786Z,5.10
2022-07-30T05:10:43.563Z,4.97
2022-07-30T05:13:15.061Z,6.80
2022-07-30T05:15:47.133Z,4.80
2022-07-30T05:18:15.837Z,5.80
2022-07-30T05:20:43.376Z,5.07
2022-07-30T05:23:10.732Z,6.33
2022-07-30T05:25:38.081Z,4.63
2022-07-30T05:28:05.497Z,5.53
2022-07-30T05:30:32.985Z,6.03
2022-07-30T05:33:02.045Z,4.57
2022-07-30T05:35:32.617Z,5.07
2022-07-30T05:38:00.323Z,5.70
2022-07-30T05:40:27.786Z,6.63
2022-07-30T05:42:55.180Z,4.50
2022-07-30T05:45:22.645Z,4.93
2022-07-30T05:47:50.234Z,7.43
2022-07-30T05:50:17.612Z,6.67
2022-07-30T05:52:46.295Z,5.20
2022-07-30T05:55:13.714Z,7.77
2022-07-30T05:57:43.669Z,5.10
2022-07-30T06:00:13.254Z,4.83
2022-07-30T06:02:40.789Z,3.93
2022-07-30T06:05:09.155Z,7.50
2022-07-30T06:07:36.590Z,4.67
2022-07-30T06:10:06.727Z,4.27
2022-07-30T06:12:34.126Z,5.50
2022-07-30T06:15:01.404Z,6.80
2022-07-30T06:17:28.840Z,6.57
2022-07-30T06:19:56.342Z,6.30
2022-07-30T06:22:26.164Z,5.60
2022-07-30T06:24:53.699Z,5.43
2022-07-30T06:27:22.442Z,7.80
2022-07-30T06:29:49.787Z,4.83
2022-07-30T06:32:17.512Z,5.37
2022-07-30T06:34:44.819Z,7.70
2022-07-30T06:37:12.206Z,5.97
2022-07-30T06:39:57.402Z,7.03
2022-07-30T06:42:27.376Z,8.80
2022-07-30T06:44:54.649Z,8.07
2022-07-30T06:47:32.123Z,5.17
2022-07-30T06:50:02.925Z,8.57
2022-07-30T06:52:30.297Z,5.90
2022-07-30T06:54:57.628Z,6.27
2022-07-30T06:57:26.464Z,7.13
2022-07-30T06:59:57.296Z,6.60
2022-07-30T07:02:25.135Z,5.97
2022-07-30T07:04:52.413Z,5.60
2022-07-30T07:07:37.109Z,7.00
2022-07-30T07:10:09.030Z,8.80
2022-07-30T07:12:37.953Z,5.80
2022-07-30T07:15:06.963Z,7.50
2022-07-30T07:17:34.328Z,7.23
2022-07-30T07:20:02.749Z,5.37
2022-07-30T07:22:30.790Z,5.00
2022-07-30T07:24:58.149Z,7.20
2022-07-30T07:27:25.636Z,7.57
2022-07-30T07:30:04.976Z,7.80
2022-07-30T07:32:33.758Z,6.23
2022-07-30T07:35:01.369Z,6.63
2022-07-30T07:37:28.898Z,7.50
2022-07-30T07:39:56.259Z,5.47
2022-07-30T07:42:23.649Z,6.40
2022-07-30T07:44:51.052Z,6.43
2022-07-30T07:47:19.721Z,5.47
2022-07-30T07:49:47.050Z,10.77
2022-07-30T07:52:14.459Z,6.30
2022-07-30T07:54:41.840Z,5.83
2022-07-30T07:57:12.843Z,4.60
2022-07-30T07:59:42.692Z,8.13
2022-07-30T08:02:10.120Z,4.87
2022-07-30T08:04:39.302Z,5.80
2022-07-30T08:07:06.928Z,5.23
2022-07-30T08:09:44.052Z,5.13
2022-07-30T08:12:12.574Z,7.03
2022-07-30T08:14:40.046Z,7.83
2022-07-30T08:17:08.193Z,6.33
2022-07-30T08:19:36.165Z,5.47
2022-07-30T08:22:05.348Z,4.77
2022-07-30T08:24:32.835Z,7.30
2022-07-30T08:27:00.726Z,5.37
2022-07-30T08:29:29.811Z,5.97
2022-07-30T08:31:57.265Z,7.10
2022-07-30T08:34:25.821Z,6.53
2022-07-30T08:36:53.373Z,7.70
2022-07-30T08:39:22.232Z,6.87
2022-07-30T08:41:50.252Z,6.53
2022-07-30T08:44:19.351Z,5.37
2022-07-30T08:46:48.193Z,8.97
2022-07-30T08:49:16.565Z,5.10
2022-07-30T08:51:44.629Z,10.17
2022-07-30T08:54:12.549Z,5.23
2022-07-30T08:56:41.722Z,5.73
2022-07-30T08:59:09.374Z,6.63
2022-07-30T09:01:36.925Z,5.70
2022-07-30T09:06:32.999Z,7.30
2022-07-30T09:09:01.097Z,5.13
2022-07-30T09:11:28.954Z,4.90
2022-07-30T09:14:10.265Z,13.43
2022-07-30T09:16:38.425Z,7.40
2022-07-30T09:19:15.899Z,4.70
2022-07-30T09:21:54.605Z,6.80
2022-07-30T09:24:22.096Z,5.40
2022-07-30T09:26:57.061Z,5.37
2022-07-30T09:29:28.426Z,6.50
2022-07-30T09:31:57.781Z,5.20
2022-07-30T09:34:28.477Z,5.17
2022-07-30T09:36:58.734Z,5.87
2022-07-30T09:39:33.994Z,5.00
2022-07-30T09:42:02.528Z,5.00
2022-07-30T09:44:31.998Z,4.00
2022-07-30T09:47:01.287Z,4.83
2022-07-30T09:49:29.813Z,4.83
2022-07-30T09:51:57.777Z,6.15
2022-07-30T09:54:26.756Z,10.15
2022-07-30T09:57:25.536Z,8.48
2022-07-30T09:59:57.455Z,9.52
2022-07-30T10:02:32.395Z,9.25
2022-07-30T10:05:14.196Z,9.95
2022-07-30T10:07:51.022Z,14.35
2022-07-30T10:10:21.822Z,12.82
2022-07-30T10:12:58.291Z,9.90
2022-07-30T10:15:32.363Z,11.43
2022-07-30T10:18:02.660Z,15.50
2022-07-30T10:20:35.115Z,11.30
2022-07-30T10:23:08.079Z,11.57
2022-07-30T10:25:54.792Z,12.73
2022-07-30T10:28:24.438Z,11.57
2022-07-30T10:30:57.076Z,12.10
2022-07-30T10:33:34.770Z,8.82
2022-07-30T10:36:05.555Z,10.27
2022-07-30T10:38:39.508Z,9.18
2022-07-30T10:41:42.639Z,8.93
2022-07-30T10:44:35.596Z,8.80
2022-07-30T10:47:09.257Z,10.32
2022-07-30T10:49:41.544Z,8.63
2022-07-30T10:52:12.059Z,10.32
2022-07-30T10:54:44.527Z,10.85
2022-07-30T10:57:31.788Z,8.57
2022-07-30T11:00:15.501Z,8.25
2022-07-30T11:03:18.620Z,8.10
2022-07-30T11:05:48.926Z,9.43
2022-07-30T11:08:42.815Z,16.50
2022-07-30T11:12:05.602Z,8.80
2022-07-30T11:15:06.583Z,6.40
2022-07-30T11:18:03.063Z,8.15
2022-07-30T11:20:34.002Z,11.70
2022-07-30T11:23:35.914Z,6.43
2022-07-30T11:26:03.647Z,6.90
2022-07-30T11:28:42.271Z,11.13
2022-07-30T11:31:55.115Z,6.13
2022-07-30T11:34:28.439Z,8.15
2022-07-30T11:37:22.334Z,9.20
2022-07-30T11:40:13.286Z,8.90
2022-07-30T11:42:42.562Z,4.88
2022-07-30T11:45:27.212Z,5.65
2022-07-30T11:47:58.154Z,5.43
2022-07-30T11:50:29.653Z,6.10
2022-07-30T11:53:00.433Z,6.05
2022-07-30T11:55:33.211Z,5.25
2022-07-30T11:58:03.642Z,5.47
2022-07-30T12:00:38.525Z,8.68
2022-07-30T12:03:14.631Z,6.20
2022-07-30T12:05:43.625Z,5.07
2022-07-30T12:08:34.071Z,3.63
2022-07-30T12:11:01.972Z,5.10
2022-07-30T12:13:43.969Z,8.67
2022-07-30T12:16:18.277Z,3.63
2022-07-30T12:18:46.737Z,7.03
2022-07-30T12:21:16.280Z,4.43
2022-07-30T12:23:55.819Z,4.10
2022-07-30T12:26:26.644Z,3.73
2022-07-30T12:28:56.070Z,4.60
2022-07-30T12:31:23.839Z,5.47
2022-07-30T12:33:51.260Z,3.10
2022-07-30T12:36:30.741Z,4.63
2022-07-30T12:39:01.401Z,4.20
2022-07-30T12:41:45.526Z,4.53
2022-07-30T12:44:39.152Z,4.70
2022-07-30T12:47:20.087Z,3.53
2022-07-30T12:49:50.209Z,3.57
2022-07-30T12:52:28.648Z,4.73
2022-07-30T12:55:12.277Z,7.77
2022-07-30T12:57:56.855Z,3.57
2022-07-30T13:00:26.688Z,2.37
2022-07-30T13:02:55.550Z,3.00
2022-07-30T13:05:47.362Z,3.83
2022-07-30T13:08:15.120Z,2.73
2022-07-30T13:10:59.666Z,5.10
2022-07-30T13:13:27.618Z,3.53
2022-07-30T13:16:00.040Z,2.80
2022-07-30T13:18:29.193Z,6.47
2022-07-30T13:20:56.810Z,5.27
2022-07-30T13:23:25.037Z,3.07
2022-07-30T13:25:52.544Z,3.03
2022-07-30T13:28:21.797Z,2.70
2022-07-30T13:30:49.790Z,5.17
2022-07-30T13:33:17.341Z,3.40
2022-07-30T13:35:44.683Z,2.50
2022-07-30T13:38:13.546Z,3.60
2022-07-30T13:40:41.894Z,3.70
2022-07-30T13:43:09.794Z,2.80
2022-07-30T13:45:38.515Z,3.67
2022-07-30T13:48:06.525Z,6.83
2022-07-30T13:50:34.015Z,3.00
2022-07-30T13:53:02.542Z,5.30
2022-07-30T13:55:30.674Z,3.63
2022-07-30T13:57:58.100Z,4.90
2022-07-30T14:00:27.404Z,3.17
2022-07-30T14:02:56.085Z,3.03
2022-07-30T14:05:23.864Z,6.37
2022-07-30T14:07:51.316Z,6.53
2022-07-30T14:10:22.139Z,3.63
2022-07-30T14:12:50.219Z,2.97
2022-07-30T14:15:18.046Z,2.83
2022-07-30T14:17:56.251Z,3.60
2022-07-30T14:20:29.018Z,3.30
2022-07-30T14:22:57.391Z,4.93
2022-07-30T14:25:25.312Z,4.20
2022-07-30T14:27:52.732Z,2.90
2022-07-30T14:30:20.300Z,4.10
2022-07-30T14:32:48.190Z,3.73
2022-07-30T14:35:15.626Z,4.33
2022-07-30T14:37:44.318Z,2.67
2022-07-30T14:40:13.185Z,2.80
2022-07-30T14:42:40.809Z,2.73
2022-07-30T14:45:10.094Z,5.33
2022-07-30T14:47:38.095Z,2.60
2022-07-30T14:50:07.384Z,3.30
2022-07-30T14:52:35.108Z,3.10
2022-07-30T14:55:06.636Z,3.20
2022-07-30T14:57:34.595Z,4.27
2022-07-30T15:00:03.124Z,4.20
2022-07-30T15:02:30.493Z,5.63
2022-07-30T15:04:57.898Z,2.97
2022-07-30T15:07:25.328Z,2.47
2022-07-30T15:09:52.843Z,2.93
2022-07-30T15:12:26.868Z,4.20
2022-07-30T15:14:54.721Z,7.80
2022-07-30T15:17:22.916Z,4.23
2022-07-30T15:19:51.445Z,4.83
2022-07-30T15:22:19.458Z,3.80
2022-07-30T15:24:47.055Z,2.83
2022-07-30T15:27:14.458Z,3.03
2022-07-30T15:29:43.144Z,3.43
2022-07-30T15:32:10.633Z,2.90
2022-07-30T15:34:38.054Z,5.03
2022-07-30T15:37:05.717Z,2.43
2022-07-30T15:39:33.653Z,2.80
2022-07-30T15:42:02.222Z,3.20
2022-07-30T15:44:30.185Z,2.77
2022-07-30T15:46:59.178Z,4.60
2022-07-30T15:49:27.995Z,4.60
2022-07-30T15:51:55.999Z,9.60
2022-07-30T15:54:24.829Z,2.87
2022-07-30T15:56:54.608Z,5.30
2022-07-30T15:59:29.048Z,5.13
2022-07-30T16:01:58.000Z,3.10
2022-07-30T16:04:31.221Z,6.57
2022-07-30T16:07:00.273Z,5.87
2022-07-30T16:09:28.364Z,4.67
2022-07-30T16:11:56.178Z,3.20
2022-07-30T16:14:23.643Z,4.20
2022-07-30T16:16:52.662Z,3.10
2022-07-30T16:19:21.589Z,2.83
2022-07-30T16:21:48.927Z,2.57
2022-07-30T16:24:16.879Z,5.07
2022-07-30T16:26:44.438Z,2.73
2022-07-30T16:29:13.996Z,2.50
2022-07-30T16:31:41.795Z,2.63
2022-07-30T16:34:09.139Z,3.00
2022-07-30T16:36:37.848Z,3.23
2022-07-30T16:39:05.687Z,3.50
2022-07-30T16:41:33.348Z,4.43
2022-07-30T16:44:00.848Z,2.77
2022-07-30T16:46:28.551Z,6.23
2022-07-30T16:48:56.074Z,4.27
2022-07-30T16:51:23.445Z,4.40
2022-07-30T16:53:52.221Z,3.90
2022-07-30T16:56:19.583Z,3.43
2022-07-30T16:58:46.876Z,4.33
2022-07-30T17:01:14.494Z,3.77
2022-07-30T17:03:41.988Z,4.87
2022-07-30T17:06:09.350Z,8.27
2022-07-30T17:08:36.772Z,3.50
2022-07-30T17:11:08.736Z,3.63
2022-07-30T17:13:37.569Z,3.83
2022-07-30T17:16:07.126Z,4.47
2022-07-30T17:18:34.670Z,3.37
2022-07-30T17:21:02.264Z,5.47
2022-07-30T17:23:30.218Z,6.90
2022-07-30T17:25:57.632Z,5.57
2022-07-30T17:28:27.039Z,4.47
2022-07-30T17:30:54.847Z,4.60
2022-07-30T17:33:22.144Z,7.17
2022-07-30T17:35:49.595Z,3.93
2022-07-30T17:38:17.172Z,4.63
2022-07-30T17:40:44.637Z,6.17
2022-07-30T17:43:13.956Z,8.90
2022-07-30T17:45:43.374Z,5.60
2022-07-30T17:48:10.876Z,11.37
2022-07-30T17:50:38.239Z,7.33
2022-07-30T17:53:06.201Z,5.77
2022-07-30T17:55:36.826Z,7.83
2022-07-30T17:58:04.967Z,7.97
2022-07-30T18:00:34.718Z,9.73
2022-07-30T18:03:03.952Z,9.67
2022-07-30T18:05:31.306Z,8.87
2022-07-30T18:07:58.696Z,8.60
2022-07-30T18:10:26.197Z,8.10
2022-07-30T18:12:53.572Z,9.70
2022-07-30T18:15:21.107Z,9.70
2022-07-30T18:17:49.007Z,10.13
2022-07-30T18:20:18.478Z,7.20
2022-07-30T18:22:45.938Z,7.57
2022-07-30T18:25:19.528Z,6.53
2022-07-30T18:27:47.555Z,6.10
2022-07-30T18:30:15.413Z,8.10
2022-07-30T18:32:42.780Z,10.53
2022-07-30T18:35:14.426Z,7.47
2022-07-30T18:37:44.993Z,7.60
2022-07-30T18:40:15.452Z,8.17
2022-07-30T18:42:43.870Z,7.63
2022-07-30T18:45:14.100Z,6.63
2022-07-30T18:47:42.319Z,5.63
2022-07-30T18:50:10.887Z,6.37
2022-07-30T18:52:38.544Z,8.17
2022-07-30T18:55:11.307Z,8.33
2022-07-30T18:57:38.975Z,5.67
2022-07-30T19:00:10.643Z,6.97
2022-07-30T19:02:58.142Z,6.13
2022-07-30T19:05:25.987Z,6.13
2022-07-30T19:07:57.482Z,5.53
2022-07-30T19:10:27.726Z,6.03
2022-07-30T19:12:55.730Z,5.17
2022-07-30T19:15:23.566Z,5.07
2022-07-30T19:17:51.725Z,7.03
2022-07-30T19:20:19.674Z,7.03
2022-07-30T19:22:47.206Z,4.90
2022-07-30T19:25:15.513Z,4.90
2022-07-30T19:27:44.469Z,8.43
2022-07-30T19:30:12.923Z,7.07
2022-07-30T19:32:40.459Z,6.20
2022-07-30T19:35:10.268Z,5.40
2022-07-30T19:37:41.950Z,5.93
2022-07-30T19:40:12.758Z,7.43
2022-07-30T19:42:41.203Z,6.03
2022-07-30T19:45:12.147Z,6.07
2022-07-30T19:47:42.258Z,6.20
2022-07-30T19:50:11.107Z,5.33
2022-07-30T19:52:39.242Z,4.87
2022-07-30T19:55:18.405Z,5.77
2022-07-30T19:57:54.840Z,6.97
2022-07-30T20:00:25.385Z,6.60
2022-07-30T20:02:53.321Z,7.67
2022-07-30T20:05:20.771Z,6.47
2022-07-30T20:07:52.702Z,8.13
2022-07-30T20:10:20.097Z,9.90
2022-07-30T20:12:49.643Z,8.93
2022-07-30T20:15:17.991Z,10.53
2022-07-30T20:17:46.826Z,7.37
2022-07-30T20:20:15.269Z,8.57
2022-07-30T20:22:42.912Z,6.70
2022-07-30T20:25:11.098Z,8.70
2022-07-30T20:27:43.074Z,9.10
2022-07-30T20:30:12.174Z,6.27
2022-07-30T20:32:43.513Z,5.80
2022-07-30T20:35:15.362Z,8.23
2022-07-30T20:37:54.999Z,7.73
2022-07-30T20:40:26.743Z,8.40
2022-07-30T20:42:54.908Z,9.00
2022-07-30T20:45:24.824Z,8.40
2022-07-30T20:47:56.030Z,7.63
2022-07-30T20:50:30.436Z,6.27
2022-07-30T20:52:59.501Z,8.97
2022-07-30T20:55:27.871Z,10.23
2022-07-30T20:58:07.888Z,9.30
2022-07-30T21:00:41.993Z,7.53
2022-07-30T21:03:18.045Z,12.33
2022-07-30T21:05:51.216Z,13.10
2022-07-30T21:08:25.185Z,9.27
2022-07-30T21:10:53.435Z,9.00
2022-07-30T21:13:25.018Z,11.20
2022-07-30T21:16:02.857Z,7.30
2022-07-30T21:18:32.849Z,6.30
2022-07-30T21:21:05.640Z,9.33
2022-07-30T21:23:34.011Z,7.93
2022-07-30T21:26:05.922Z,9.90
2022-07-30T21:28:37.915Z,8.67
2022-07-30T21:31:07.177Z,6.37
2022-07-30T21:33:36.133Z,10.13
2022-07-30T21:36:10.192Z,10.30
2022-07-30T21:38:38.852Z,9.73
2022-07-30T21:41:14.378Z,6.63
2022-07-30T21:43:43.863Z,6.73
2022-07-30T21:46:12.172Z,5.20
2022-07-30T21:48:40.984Z,8.30
2022-07-30T21:51:10.817Z,5.60
2022-07-30T21:53:46.086Z,5.70
2022-07-30T21:56:15.808Z,6.40
2022-07-30T21:58:44.496Z,7.97
2022-07-30T22:01:17.163Z,7.07
2022-07-30T22:06:39.260Z,5.70
2022-07-30T22:09:19.132Z,7.30
2022-07-30T22:11:56.902Z,5.27
2022-07-30T22:14:29.040Z,7.07
2022-07-30T22:16:56.672Z,6.97
2022-07-30T22:19:25.859Z,7.93
2022-07-30T22:21:55.072Z,6.83
2022-07-30T22:24:28.788Z,7.37
2022-07-30T22:26:59.985Z,7.87
2022-07-30T22:29:34.037Z,7.70
2022-07-30T22:32:04.109Z,6.80
2022-07-30T22:34:32.168Z,7.80
2022-07-30T22:37:00.957Z,6.73
2022-07-30T22:39:31.528Z,8.60
2022-07-30T22:42:01.227Z,5.70
2022-07-30T22:44:29.018Z,5.90
2022-07-30T22:46:56.659Z,6.00
2022-07-30T22:49:35.649Z,5.63
2022-07-30T22:52:19.900Z,7.37
2022-07-30T22:54:59.643Z,5.57
2022-07-30T22:57:37.823Z,10.33
2022-07-30T23:00:11.698Z,6.17
2022-07-30T23:02:39.819Z,5.90
2022-07-30T23:05:08.939Z,5.63
2022-07-30T23:07:39.740Z,5.80
2022-07-30T23:10:17.207Z,6.50
2022-07-30T23:12:28.190Z,7.33
2022-07-30T23:12:48.116Z,7.13
2022-07-30T23:15:15.759Z,5.40
2022-07-30T23:17:44.005Z,6.13
2022-07-30T23:20:15.217Z,8.53
2022-07-30T23:22:44.230Z,8.47
2022-07-30T23:25:12.781Z,10.13
2022-07-30T23:27:41.518Z,9.00
2022-07-30T23:30:11.404Z,9.77
2022-07-30T23:32:40.513Z,6.37
2022-07-30T23:35:10.277Z,9.10
2022-07-30T23:37:48.351Z,7.30
2022-07-30T23:40:18.927Z,6.73
2022-07-30T23:42:47.625Z,10.47
2022-07-30T23:45:15.301Z,6.10
2022-07-30T23:48:00.602Z,9.40
2022-07-30T23:50:31.735Z,5.97
2022-07-30T23:52:59.398Z,6.13
2022-07-30T23:55:29.533Z,6.83
2022-07-30T23:57:57.926Z,9.40
